Time;durP1;ratioP1;P1;durP2;ratioP2;P2;SDS_P1;SDS_P2;PMS_P1;PMS_P2;Temp;Humidity;BMP_temperature;BMP_pressure;BME280_temperature;BME280_humidity;BME280_pressure;Samples;Min_cycle;Max_cycle;Signal;HPM_P1;HPM_P2
2023/07/09 00:01:17;;;;;;;2.03;1.40;;;22.60;99.90;;;22.65;49.35;101362.63;4889520;28;99588;-43
2023/07/09 00:03:44;;;;;;;2.50;1.70;;;22.60;99.90;;;22.63;49.43;101363.69;4890655;28;100499;-43
2023/07/09 00:06:12;;;;;;;1.90;1.50;;;22.60;99.90;;;22.61;49.46;101361.13;4876617;28;100565;-43
2023/07/09 00:08:44;;;;;;;4.23;1.20;;;22.60;99.90;;;22.61;49.36;101366.50;4877791;28;98732;-43
2023/07/09 00:11:10;;;;;;;2.00;1.27;;;22.50;99.90;;;22.57;49.41;101354.28;4873570;28;98190;-44
2023/07/09 00:13:35;;;;;;;1.60;1.40;;;22.50;99.90;;;22.52;49.76;101357.28;4888450;28;99371;-45
2023/07/09 00:16:12;;;;;;;2.57;1.53;;;22.50;99.90;;;22.52;49.69;101361.81;4887931;28;101089;-45
2023/07/09 00:18:37;;;;;;;3.07;1.80;;;22.50;99.90;;;22.54;49.56;101359.88;4886785;28;97750;-43
2023/07/09 00:21:03;;;;;;;4.40;2.13;;;22.50;99.90;;;22.56;49.46;101365.97;4895282;28;98535;-45
2023/07/09 00:23:29;;;;;;;2.10;1.37;;;22.50;99.90;;;22.53;49.68;101363.53;4889493;28;116801;-46
2023/07/09 00:25:55;;;;;;;2.57;1.80;;;22.50;99.90;;;22.53;49.89;101360.84;4888766;28;97968;-44
2023/07/09 00:28:21;;;;;;;1.50;1.30;;;22.50;99.90;;;22.51;49.83;101360.09;4891731;28;123040;-47
2023/07/09 00:30:48;;;;;;;3.63;2.30;;;22.50;99.90;;;22.56;49.90;101365.97;4890688;28;98337;-44
2023/07/09 00:33:18;;;;;;;2.47;1.63;;;22.50;99.90;;;22.55;49.60;101358.88;4888403;28;98238;-44
2023/07/09 00:35:46;;;;;;;1.37;1.20;;;22.50;99.90;;;22.54;49.93;101354.47;4887685;28;97702;-47
2023/07/09 00:38:29;;;;;;;2.40;1.50;;;22.50;99.90;;;22.55;49.67;101356.19;4876329;28;98374;-44
2023/07/09 00:41:06;;;;;;;6.10;2.40;;;22.50;99.90;;;22.55;49.86;101356.19;4888498;28;106697;-45
2023/07/09 00:43:35;;;;;;;1.90;1.40;;;22.50;99.90;;;22.52;49.69;101351.91;4890449;28;97763;-43
2023/07/09 00:46:20;;;;;;;3.20;1.70;;;22.50;99.90;;;22.53;49.75;101358.16;4887297;28;97900;-47
2023/07/09 00:48:50;;;;;;;2.27;1.30;;;22.50;99.90;;;22.49;49.83;101351.28;4889690;28;98497;-46
2023/07/09 00:51:22;;;;;;;1.90;1.27;;;22.50;99.90;;;22.47;49.98;101347.88;4869917;28;97999;-48
2023/07/09 00:53:52;;;;;;;1.87;1.37;;;22.40;99.90;;;22.45;50.01;101349.81;4872731;28;103715;-45
2023/07/09 00:56:33;;;;;;;2.73;1.50;;;22.40;99.90;;;22.43;50.00;101351.75;4871296;28;103478;-43
2023/07/09 00:59:05;;;;;;;2.20;1.13;;;22.40;99.90;;;22.40;50.07;101347.44;4878433;28;98296;-44
2023/07/09 01:01:32;;;;;;;2.37;1.30;;;22.40;99.90;;;22.40;50.04;101347.44;4873131;28;98228;-45
2023/07/09 01:04:00;;;;;;;1.97;1.40;;;22.40;99.90;;;22.40;50.20;101351.97;4890490;28;98788;-48
2023/07/09 01:06:51;;;;;;;1.87;1.40;;;22.40;99.90;;;22.40;50.11;101343.91;4887008;28;97607;-46
2023/07/09 01:09:18;;;;;;;2.80;1.60;;;22.40;99.90;;;22.40;50.12;101357.34;4890845;28;97500;-49
2023/07/09 01:11:44;;;;;;;1.77;1.30;;;22.40;99.90;;;22.38;50.43;101353.91;4875462;28;97972;-43
2023/07/09 01:14:19;;;;;;;2.70;1.53;;;22.40;99.90;;;22.35;50.41;101346.09;4894365;28;124707;-45
2023/07/09 01:16:57;;;;;;;1.90;1.40;;;22.30;99.90;;;22.36;50.48;101351.34;4879132;28;103617;-47
2023/07/09 01:19:25;;;;;;;2.10;1.40;;;22.30;99.90;;;22.34;50.36;101342.53;4895281;28;97645;-43
2023/07/09 01:22:01;;;;;;;3.13;1.63;;;22.30;99.90;;;22.36;50.40;101350.50;4875501;28;97438;-44
2023/07/09 01:25:02;;;;;;;2.20;1.10;;;22.40;99.90;;;22.41;50.27;101356.38;4892349;28;102905;-43
2023/07/09 01:27:34;;;;;;;1.80;1.27;;;22.30;99.90;;;22.40;50.33;101351.97;4925374;28;101155;-44
2023/07/09 01:30:10;;;;;;;1.33;1.20;;;22.40;99.90;;;22.41;50.29;101349.16;4935775;28;102408;-45
2023/07/09 01:32:38;;;;;;;2.27;1.40;;;22.40;99.90;;;22.42;50.45;101355.41;4925860;28;97726;-44
2023/07/09 01:35:06;;;;;;;3.17;1.73;;;22.40;99.90;;;22.45;50.41;101349.81;4910674;28;108041;-43
2023/07/09 01:37:37;;;;;;;2.03;1.50;;;22.40;99.90;;;22.46;50.32;101356.91;4938065;28;97503;-43
2023/07/09 01:40:05;;;;;;;1.97;1.67;;;22.40;99.90;;;22.47;50.33;101354.09;4931990;28;97180;-43
2023/07/09 01:42:32;;;;;;;3.20;1.80;;;22.40;99.90;;;22.49;50.37;101356.66;4934756;28;97595;-44
2023/07/09 01:44:58;;;;;;;2.77;2.20;;;22.40;99.90;;;22.51;49.82;101354.72;4909873;28;97590;-43
2023/07/09 01:47:24;;;;;;;4.80;2.83;;;22.40;99.90;;;22.52;50.30;101356.44;4935174;28;97258;-47
2023/07/09 01:49:56;;;;;;;3.20;2.40;;;22.40;99.90;;;22.54;50.71;101354.47;4939228;28;97373;-43
2023/07/09 01:52:24;;;;;;;6.13;2.90;;;22.50;99.90;;;22.57;50.98;101354.28;4921223;28;97632;-45
2023/07/09 01:54:49;;;;;;;4.43;2.53;;;22.50;99.90;;;22.59;50.09;101360.41;4934902;28;98444;-46
2023/07/09 01:57:25;;;;;;;4.27;2.27;;;22.50;99.90;;;22.59;50.18;101363.09;4930593;28;102011;-44
2023/07/09 01:59:54;;;;;;;4.47;2.00;;;22.50;99.90;;;22.59;50.18;101357.72;4929663;28;97871;-44
2023/07/09 02:02:22;;;;;;;4.43;2.30;;;22.50;99.90;;;22.61;50.19;101354.91;4928101;28;97329;-46
2023/07/09 02:04:50;;;;;;;4.23;2.20;;;22.50;99.90;;;22.60;50.04;101364.78;4927993;28;97445;-44
2023/07/09 02:07:17;;;;;;;3.53;2.13;;;22.50;99.90;;;22.61;51.77;101361.13;4926028;28;97877;-45
2023/07/09 02:09:43;;;;;;;4.33;2.27;;;22.50;99.90;;;22.62;50.96;101357.47;4921598;28;97588;-48
2023/07/09 02:12:11;;;;;;;4.43;2.43;;;22.60;99.90;;;22.63;51.93;101363.69;4932960;28;97829;-46
2023/07/09 02:14:38;;;;;;;4.00;2.60;;;22.60;99.90;;;22.62;50.67;101357.47;4910869;28;98817;-45
2023/07/09 02:17:04;;;;;;;3.50;2.13;;;22.60;99.90;;;22.63;50.10;101367.25;4928957;28;97523;-45
2023/07/09 02:19:30;;;;;;;3.70;2.23;;;22.60;99.90;;;22.61;50.19;101371.03;4923449;28;97689;-44
2023/07/09 02:21:56;;;;;;;3.30;2.47;;;22.50;99.90;;;22.61;50.15;101366.50;4928384;28;97556;-45
2023/07/09 02:24:24;;;;;;;3.47;2.00;;;22.50;99.90;;;22.62;50.10;101368.22;4922181;28;101637;-46
2023/07/09 02:26:51;;;;;;;2.70;2.03;;;22.50;99.90;;;22.60;50.17;101370.19;4929898;28;97611;-43
2023/07/09 02:29:17;;;;;;;3.03;1.37;;;22.50;99.90;;;22.57;50.03;101365.03;4928521;28;97085;-45
2023/07/09 02:31:45;;;;;;;3.00;1.67;;;22.50;99.90;;;22.55;50.07;101369.63;4922122;28;97236;-43
2023/07/09 02:34:11;;;;;;;3.73;2.40;;;22.50;99.90;;;22.57;53.50;101370.41;4924128;28;101262;-45
2023/07/09 02:36:36;;;;;;;3.93;2.60;;;22.50;99.90;;;22.56;50.25;101371.34;4921491;28;125783;-45
2023/07/09 02:39:03;;;;;;;3.70;2.20;;;22.50;99.90;;;22.57;50.03;101375.78;4927279;28;116504;-43
2023/07/09 02:41:28;;;;;;;4.80;2.40;;;22.50;99.90;;;22.56;50.39;101382.09;4930403;28;97823;-44
2023/07/09 02:43:54;;;;;;;2.73;2.30;;;22.50;99.90;;;22.56;50.37;101379.41;4915864;28;123123;-43
2023/07/09 02:46:20;;;;;;;3.53;2.33;;;22.50;99.90;;;22.57;50.53;101381.16;4928585;28;124365;-47
2023/07/09 02:48:45;;;;;;;6.03;2.73;;;22.50;99.90;;;22.58;50.29;101379.34;4937064;28;119756;-44
2023/07/09 02:51:11;;;;;;;4.87;2.50;;;22.50;99.90;;;22.59;51.11;101372.97;4934508;28;97515;-45
2023/07/09 02:53:37;;;;;;;3.53;2.43;;;22.50;99.90;;;22.56;50.72;101380.28;4929856;28;114196;-48
2023/07/09 02:56:03;;;;;;;3.23;1.73;;;22.50;99.90;;;22.58;50.23;101372.13;4922678;28;117780;-43
2023/07/09 02:58:28;;;;;;;7.13;2.67;;;22.50;99.90;;;22.57;50.77;101378.47;4923361;28;97262;-44
2023/07/09 03:00:54;;;;;;;4.63;2.30;;;22.50;99.90;;;22.56;50.55;101379.41;4922368;28;109836;-46
2023/07/09 03:03:21;;;;;;;2.53;1.87;;;22.50;99.90;;;22.55;50.62;101377.72;4924546;28;98250;-44
2023/07/09 03:05:47;;;;;;;2.53;1.90;;;22.50;99.90;;;22.56;50.48;101384.78;4923451;28;97630;-44
2023/07/09 03:08:15;;;;;;;4.27;2.27;;;22.50;99.90;;;22.55;50.12;101377.72;4928133;28;97593;-47
2023/07/09 03:10:41;;;;;;;3.17;2.20;;;22.50;99.90;;;22.54;50.52;101376.84;4921822;28;97913;-44
2023/07/09 03:13:07;;;;;;;3.53;2.50;;;22.40;99.90;;;22.54;50.58;101376.00;4933845;28;101286;-44
2023/07/09 03:15:33;;;;;;;3.97;2.23;;;22.40;99.90;;;22.55;50.96;101388.47;4924468;28;125094;-45
2023/07/09 03:17:58;;;;;;;3.83;2.43;;;22.40;99.90;;;22.53;51.00;101385.88;4925989;28;97161;-46
2023/07/09 03:20:25;;;;;;;3.30;2.00;;;22.50;99.90;;;22.54;50.50;101386.75;4927106;28;118971;-44
2023/07/09 03:22:51;;;;;;;3.73;2.60;;;22.40;99.90;;;22.53;50.43;101391.25;4931297;28;97668;-44
2023/07/09 03:25:16;;;;;;;3.80;2.07;;;22.40;99.90;;;22.53;50.53;101402.03;4921793;28;124128;-44
2023/07/09 03:27:42;;;;;;;2.80;1.53;;;22.40;99.90;;;22.50;50.45;101396.88;4920435;28;99818;-46
2023/07/09 03:30:09;;;;;;;2.23;1.60;;;22.40;99.90;;;22.51;50.23;101397.72;4927243;28;109814;-43
2023/07/09 03:32:34;;;;;;;5.97;1.70;;;22.40;99.90;;;22.49;50.33;101399.69;4924203;28;97551;-45
2023/07/09 03:35:00;;;;;;;3.53;2.00;;;22.40;99.90;;;22.50;50.40;101406.78;4925813;28;125972;-45
2023/07/09 03:37:26;;;;;;;5.43;2.30;;;22.40;99.90;;;22.51;51.48;101412.03;4911793;28;112278;-45
2023/07/09 03:39:51;;;;;;;2.40;2.07;;;22.40;99.90;;;22.51;52.61;101409.34;4907932;28;97510;-43
2023/07/09 03:42:17;;;;;;;3.60;2.33;;;22.40;99.90;;;22.50;50.36;101409.47;4925277;28;120790;-44
2023/07/09 03:44:43;;;;;;;3.67;2.30;;;22.40;99.90;;;22.50;50.43;101406.78;4928191;28;118356;-45
2023/07/09 03:47:09;;;;;;;2.30;1.63;;;22.40;99.90;;;22.50;50.40;101413.00;4934536;28;97583;-45
2023/07/09 03:49:35;;;;;;;1.40;1.30;;;22.40;99.90;;;22.49;50.33;101408.59;4922077;28;116618;-45
2023/07/09 03:52:01;;;;;;;1.80;1.20;;;22.40;99.90;;;22.47;50.23;101417.75;4927513;28;97986;-47
2023/07/09 03:54:27;;;;;;;1.60;1.30;;;22.40;99.90;;;22.46;50.38;101413.34;4927479;28;97512;-43
2023/07/09 03:56:53;;;;;;;5.30;2.07;;;22.40;99.90;;;22.47;50.46;101417.75;4928964;28;98277;-43
2023/07/09 03:59:19;;;;;;;3.00;1.70;;;22.40;99.90;;;22.47;50.39;101415.94;4924134;28;97776;-45
2023/07/09 04:01:45;;;;;;;3.07;2.03;;;22.40;99.90;;;22.47;50.39;101417.75;4927818;28;97295;-44
2023/07/09 04:04:12;;;;;;;4.23;2.00;;;22.40;99.90;;;22.48;50.73;101424.84;4920468;28;101800;-44
2023/07/09 04:06:38;;;;;;;6.03;2.27;;;22.40;99.90;;;22.48;51.89;101425.72;4932296;28;96896;-43
2023/07/09 04:09:04;;;;;;;3.53;2.43;;;22.40;99.90;;;22.48;50.78;101419.47;4924126;28;97371;-43
2023/07/09 04:11:30;;;;;;;6.50;2.40;;;22.40;99.90;;;22.53;57.10;101422.66;4929083;28;110131;-45
2023/07/09 04:13:56;;;;;;;4.93;2.87;;;22.50;99.90;;;22.50;51.94;101420.22;4937199;28;125606;-44
2023/07/09 04:16:21;;;;;;;3.83;2.30;;;22.40;99.90;;;22.49;50.76;101426.56;4926448;28;117796;-44
2023/07/09 04:18:48;;;;;;;2.97;1.93;;;22.40;99.90;;;22.49;50.78;101416.66;4933263;28;97443;-45
2023/07/09 04:21:14;;;;;;;1.70;1.40;;;22.40;99.90;;;22.48;50.65;101427.53;4927069;28;97691;-43
2023/07/09 04:23:39;;;;;;;2.40;1.70;;;22.40;99.90;;;22.46;50.67;101418.72;4921732;28;115883;-45
2023/07/09 04:26:09;;;;;;;1.90;1.30;;;22.40;99.90;;;22.46;50.56;101422.28;4929449;28;114142;-43
2023/07/09 04:28:35;;;;;;;1.33;1.10;;;22.40;99.90;;;22.48;50.57;101430.22;4920876;28;97261;-42
2023/07/09 04:31:00;;;;;;;2.20;1.33;;;22.40;99.90;;;22.48;50.50;101427.53;4913921;28;97467;-48
2023/07/09 04:33:26;;;;;;;1.67;1.40;;;22.40;99.90;;;22.46;50.52;101424.97;4926582;28;115627;-44
2023/07/09 04:35:52;;;;;;;1.80;1.43;;;22.40;99.90;;;22.48;50.46;101424.84;4907763;28;97661;-43
2023/07/09 04:38:18;;;;;;;1.57;1.07;;;22.40;99.90;;;22.48;50.49;101425.72;4920087;28;108044;-45
2023/07/09 04:40:44;;;;;;;2.37;1.30;;;22.40;99.90;;;22.46;50.62;101429.47;4934290;28;101094;-45
2023/07/09 04:43:10;;;;;;;3.33;2.07;;;22.40;99.90;;;22.45;50.50;101434.00;4929325;28;98813;-45
2023/07/09 04:45:35;;;;;;;4.60;2.47;;;22.40;99.90;;;22.46;50.86;101422.28;4930209;28;98446;-44
2023/07/09 04:48:01;;;;;;;1.30;0.90;;;22.40;99.90;;;22.45;50.46;101430.47;4926498;28;115572;-44
2023/07/09 04:50:27;;;;;;;1.50;1.20;;;22.40;99.90;;;22.45;50.54;101427.75;4926516;28;98161;-47
2023/07/09 04:52:53;;;;;;;1.73;1.37;;;22.40;99.90;;;22.45;50.41;101425.09;4927130;28;97797;-43
2023/07/09 04:55:18;;;;;;;3.83;2.43;;;22.40;99.90;;;22.47;50.53;101425.81;4922776;28;98267;-43
2023/07/09 04:57:45;;;;;;;2.67;1.60;;;22.40;99.90;;;22.48;50.36;101422.16;4927414;28;97419;-45
2023/07/09 05:00:12;;;;;;;2.03;1.30;;;22.40;99.90;;;22.45;50.54;101428.63;4929305;28;100423;-45
2023/07/09 05:02:37;;;;;;;6.73;2.80;;;22.40;99.90;;;22.48;50.92;101420.31;4928100;28;97556;-45
2023/07/09 05:05:05;;;;;;;1.97;1.17;;;22.40;99.90;;;22.49;50.62;101426.56;4926464;28;121569;-45
2023/07/09 05:07:33;;;;;;;3.57;2.00;;;22.40;99.90;;;22.49;50.58;101423.88;4922176;28;97817;-44
2023/07/09 05:09:58;;;;;;;3.53;2.37;;;22.40;99.90;;;22.50;50.46;101426.44;4921390;28;100671;-55
2023/07/09 05:12:27;;;;;;;2.10;1.27;;;22.40;99.90;;;22.49;50.51;101422.03;4925310;28;117658;-43
2023/07/09 05:14:54;;;;;;;4.20;2.50;;;22.40;99.90;;;22.49;50.93;101426.56;4928238;28;97353;-44
2023/07/09 05:17:21;;;;;;;3.17;2.23;;;22.40;99.90;;;22.48;50.63;101422.16;4926829;28;97146;-44
2023/07/09 05:19:47;;;;;;;4.40;2.43;;;22.40;99.90;;;22.49;51.20;101419.34;4934439;28;98037;-46
2023/07/09 05:22:13;;;;;;;2.13;1.37;;;22.40;99.90;;;22.48;50.56;101416.78;4934224;28;124837;-44
2023/07/09 05:24:39;;;;;;;2.00;1.37;;;22.40;99.90;;;22.48;50.48;101416.78;4930098;28;97301;-44
2023/07/09 05:27:04;;;;;;;2.10;1.50;;;22.40;99.90;;;22.47;50.32;101424.00;4930147;28;97398;-43
2023/07/09 05:29:30;;;;;;;3.53;1.87;;;22.40;99.90;;;22.47;50.48;101417.75;4934005;28;98201;-44
2023/07/09 05:31:56;;;;;;;1.60;1.50;;;22.40;99.90;;;22.48;50.60;101419.47;4925900;28;118804;-44
2023/07/09 05:34:22;;;;;;;2.17;1.37;;;22.40;99.90;;;22.41;50.49;101420.88;4924078;28;118992;-48
2023/07/09 05:36:48;;;;;;;2.50;1.40;;;22.40;99.90;;;22.39;50.64;101414.75;4928090;28;97452;-45
2023/07/09 05:39:14;;;;;;;2.83;1.50;;;22.40;99.90;;;22.39;50.87;101425.50;4938471;28;97870;-44
2023/07/09 05:41:39;;;;;;;2.40;1.57;;;22.40;99.90;;;22.37;50.65;101427.47;4922667;28;97540;-44
2023/07/09 05:44:05;;;;;;;1.53;1.27;;;22.40;99.90;;;22.31;50.92;101414.47;4925497;28;97942;-46
2023/07/09 05:46:36;;;;;;;2.03;1.43;;;22.30;99.90;;;22.25;51.09;101416.63;4892863;28;101295;-43
2023/07/09 05:49:03;;;;;;;1.83;1.30;;;22.30;99.90;;;22.25;51.05;101422.00;4921949;28;101532;-49
2023/07/09 05:51:29;;;;;;;4.77;2.20;;;22.30;99.90;;;22.31;51.00;101420.72;4929891;28;97930;-46
2023/07/09 05:53:55;;;;;;;1.80;1.50;;;22.30;99.90;;;22.31;51.21;101419.84;4927744;28;97899;-46
2023/07/09 05:56:21;;;;;;;1.60;1.33;;;22.30;99.90;;;22.31;51.20;101417.16;4922836;28;97915;-43
2023/07/09 05:58:47;;;;;;;2.03;1.50;;;22.30;99.90;;;22.31;51.11;101412.66;4926864;28;98666;-44
2023/07/09 06:01:13;;;;;;;4.03;1.83;;;22.40;99.90;;;22.33;51.08;101415.22;4930461;28;97678;-45
2023/07/09 06:03:39;;;;;;;2.67;1.67;;;22.30;99.90;;;22.32;51.32;101418.88;4928860;28;97540;-44
2023/07/09 06:06:06;;;;;;;2.87;1.30;;;22.30;99.90;;;22.32;51.30;101418.88;5027348;22;97751;-45
2023/07/09 06:08:32;;;;;;;3.13;2.10;;;22.30;99.90;;;22.33;51.87;101420.59;4920994;28;97276;-43
2023/07/09 06:11:01;;;;;;;2.53;1.83;;;22.30;99.90;;;22.39;51.32;101425.50;4920839;28;102744;-43
2023/07/09 06:13:30;;;;;;;2.60;1.53;;;22.40;99.90;;;22.33;51.26;101421.44;4915112;28;98018;-46
2023/07/09 06:15:57;;;;;;;2.37;1.57;;;22.40;99.90;;;22.29;51.18;101419.13;4912573;28;99161;-43
2023/07/09 06:18:28;;;;;;;1.70;1.30;;;22.30;99.90;;;22.30;51.34;101415.44;4908098;28;97748;-48
2023/07/09 06:20:57;;;;;;;2.57;1.60;;;22.30;99.90;;;22.29;51.25;101413.75;4915552;28;100761;-43
2023/07/09 06:23:23;;;;;;;2.10;1.50;;;22.30;99.90;;;22.31;51.37;101412.66;4911727;28;97504;-48
2023/07/09 06:25:50;;;;;;;2.17;1.87;;;22.30;99.90;;;22.27;51.46;101409.31;4915959;28;110615;-44
2023/07/09 06:28:20;;;;;;;1.80;1.30;;;22.30;99.90;;;22.26;51.44;101415.66;4908824;28;97998;-49
2023/07/09 06:30:46;;;;;;;2.00;1.70;;;22.30;99.90;;;22.25;51.44;101411.25;4903240;28;98656;-44
2023/07/09 06:33:15;;;;;;;2.70;1.40;;;22.30;99.90;;;22.31;51.57;101411.78;4905484;28;97737;-46
2023/07/09 06:35:48;;;;;;;3.23;1.80;;;22.30;99.90;;;22.31;51.61;101412.66;4910969;28;97234;-43
2023/07/09 06:38:14;;;;;;;4.00;1.77;;;22.30;99.90;;;22.30;51.68;101410.06;4910177;28;102027;-45
2023/07/09 06:40:40;;;;;;;2.97;2.20;;;22.30;99.90;;;22.36;51.31;101415.84;4909824;28;98561;-45
2023/07/09 06:43:05;;;;;;;4.67;2.60;;;22.40;99.90;;;22.55;55.38;101412.66;4912651;28;119154;-44
2023/07/09 06:45:32;;;;;;;6.10;3.00;;;22.50;99.90;;;22.66;54.48;101414.56;4906712;28;118391;-42
2023/07/09 06:47:57;;;;;;;2.43;2.20;;;22.60;99.90;;;22.72;52.59;101424.88;4911716;28;101225;-44
2023/07/09 06:50:23;;;;;;;7.30;2.73;;;22.70;99.90;;;22.67;52.59;101419.81;4914328;28;126635;-44
2023/07/09 06:52:49;;;;;;;2.80;1.80;;;22.70;99.90;;;22.66;51.45;101418.09;4911705;28;97119;-45
2023/07/09 06:55:15;;;;;;;3.07;2.07;;;22.70;99.90;;;22.73;53.81;101414.00;4905794;28;97717;-44
2023/07/09 06:57:41;;;;;;;3.37;1.73;;;22.70;99.90;;;22.69;51.24;101411.63;4908132;28;123222;-45
2023/07/09 07:00:07;;;;;;;3.07;1.87;;;22.70;99.90;;;22.61;51.25;101409.53;4909428;28;99382;-43
2023/07/09 07:02:33;;;;;;;3.97;1.80;;;22.70;99.90;;;22.54;51.46;101409.09;4907281;28;97616;-46
2023/07/09 07:04:59;;;;;;;3.00;1.97;;;22.60;99.90;;;22.54;51.30;101405.56;4908454;28;121864;-47
2023/07/09 07:07:25;;;;;;;5.23;2.17;;;22.60;99.90;;;22.52;51.16;101413.75;4908054;28;108357;-47
2023/07/09 07:09:50;;;;;;;3.40;2.57;;;22.60;99.90;;;22.70;56.70;101410.66;4902105;28;97849;-44
2023/07/09 07:12:28;;;;;;;5.80;2.10;;;22.70;99.90;;;22.87;53.75;101420.22;4909878;28;97815;-45
2023/07/09 07:14:55;;;;;;;3.47;2.57;;;22.80;99.90;;;22.93;53.32;101408.97;4912609;28;97597;-44
2023/07/09 07:17:22;;;;;;;2.97;2.20;;;23.00;99.90;;;22.83;51.65;101406.97;4910002;28;97859;-45
2023/07/09 07:19:49;;;;;;;4.73;2.23;;;22.90;99.90;;;22.76;50.96;101402.16;4909885;28;105792;-45
2023/07/09 07:22:15;;;;;;;2.72;1.88;;;22.80;99.90;;;22.68;50.93;101400.03;4913957;28;97853;-45
2023/07/09 07:24:41;;;;;;;62.87;54.23;;;22.80;99.90;;;22.67;52.00;101398.31;4911318;28;121738;-44
2023/07/09 07:27:08;;;;;;;6.33;3.83;;;22.80;99.90;;;22.88;57.52;101405.78;4911868;28;108266;-43
2023/07/09 07:29:34;;;;;;;5.60;3.30;;;22.80;99.90;;;22.85;50.83;101402.31;4910211;28;101205;-45
2023/07/09 07:32:00;;;;;;;4.40;2.40;;;22.90;99.90;;;22.85;51.39;101399.63;4908428;28;122794;-51
2023/07/09 07:34:26;;;;;;;4.63;3.00;;;22.90;99.90;;;22.76;50.95;101397.63;4910769;28;97408;-45
2023/07/09 07:36:52;;;;;;;4.63;2.50;;;22.80;99.90;;;23.04;51.19;101398.25;4905907;28;127898;-45
2023/07/09 07:39:18;;;;;;;3.25;2.40;;;23.10;99.90;;;22.92;50.84;101391.13;4906128;28;98854;-43
2023/07/09 07:41:43;;;;;;;4.63;2.17;;;23.00;99.90;;;22.83;50.74;101393.53;4914075;28;98097;-43
2023/07/09 07:44:09;;;;;;;3.27;2.57;;;22.90;99.90;;;22.87;50.71;101399.56;4908860;28;114252;-46
2023/07/09 07:46:35;;;;;;;3.67;2.38;;;22.90;99.90;;;22.99;51.00;101395.03;4911951;28;129139;-44
2023/07/09 07:49:01;;;;;;;3.67;2.00;;;23.00;99.90;;;22.97;50.77;101394.31;4915081;28;97982;-43
2023/07/09 07:51:27;;;;;;;4.05;2.58;;;23.10;99.90;;;23.12;53.30;101403.91;4912626;28;97528;-49
2023/07/09 07:53:53;;;;;;;4.13;2.72;;;23.20;99.90;;;23.18;54.75;101403.44;4904345;28;97579;-44
2023/07/09 07:56:19;;;;;;;3.50;2.28;;;23.20;99.90;;;23.47;58.21;101394.94;4873696;28;116776;-49
2023/07/09 07:58:45;;;;;;;4.00;2.38;;;23.50;99.90;;;23.65;50.99;101396.22;4879756;28;105995;-45
2023/07/09 08:01:11;;;;;;;4.07;2.35;;;23.80;99.90;;;23.61;49.70;101392.06;4880795;28;109651;-46
2023/07/09 08:03:36;;;;;;;3.80;2.60;;;23.80;99.90;;;23.42;50.85;101396.13;4893818;28;97908;-45
2023/07/09 08:06:02;;;;;;;5.28;2.17;;;23.60;99.90;;;23.58;51.57;101401.25;4873921;28;126525;-44
2023/07/09 08:08:28;;;;;;;4.25;2.40;;;23.70;99.90;;;23.49;52.09;101396.53;4880385;28;113169;-43
2023/07/09 08:11:04;;;;;;;3.97;2.58;;;23.60;99.90;;;23.71;52.72;101401.09;4871985;28;97973;-44
2023/07/09 08:13:34;;;;;;;3.25;2.33;;;23.80;99.90;;;23.77;50.46;101389.88;4873053;28;97101;-46
2023/07/09 08:16:00;;;;;;;5.13;2.47;;;23.90;99.90;;;23.73;50.95;101399.19;4870399;28;100996;-51
2023/07/09 08:18:26;;;;;;;2.45;2.25;;;23.90;99.90;;;23.58;50.43;101393.16;4882699;28;99020;-43
2023/07/09 08:20:52;;;;;;;4.63;3.08;;;23.80;99.90;;;23.76;52.15;101392.69;4876567;28;97602;-45
2023/07/09 08:23:18;;;;;;;3.58;2.83;;;23.80;99.90;;;23.61;49.49;101389.38;4876186;28;102150;-46
2023/07/09 08:25:56;;;;;;;3.50;2.22;;;23.80;99.90;;;23.44;50.42;101383.44;4875520;28;97902;-45
2023/07/09 08:28:21;;;;;;;2.55;2.33;;;23.60;99.90;;;23.26;49.84;101376.78;4874424;28;100061;-46
2023/07/09 08:30:47;;;;;;;5.18;2.00;;;23.40;99.90;;;23.22;50.13;101375.31;4874825;28;125611;-43
2023/07/09 08:33:13;;;;;;;5.07;2.75;;;23.40;99.90;;;23.20;55.01;101368.34;4873475;28;110154;-44
2023/07/09 08:35:42;;;;;;;6.78;3.35;;;23.30;99.90;;;23.64;59.41;101373.81;4872570;28;106144;-44
2023/07/09 08:38:08;;;;;;;7.88;2.70;;;23.60;99.90;;;23.72;50.24;101376.78;4874693;28;98006;-47
2023/07/09 08:40:41;;;;;;;3.08;2.28;;;23.90;99.90;;;23.44;51.10;101372.69;4876578;28;97750;-45
2023/07/09 08:43:48;;;;;;;3.78;2.40;;;23.60;99.90;;;23.39;50.47;101368.59;4876482;28;97469;-47
2023/07/09 08:46:29;;;;;;;3.50;2.08;;;23.50;99.90;;;23.39;51.38;101364.09;4874729;28;101203;-45
2023/07/09 08:48:57;;;;;;;3.92;2.88;;;23.50;99.90;;;23.35;50.37;101367.16;4870437;28;102275;-48
2023/07/09 08:51:35;;;;;;;5.22;2.20;;;23.50;99.90;;;23.43;55.22;101364.69;4884297;28;100319;-47
2023/07/09 08:54:01;;;;;;;3.85;2.50;;;23.50;99.90;;;23.76;52.26;101365.75;4891744;28;98293;-48
2023/07/09 08:56:32;;;;;;;3.63;2.25;;;23.80;99.90;;;23.87;51.39;101361.22;4884368;28;97688;-43
2023/07/09 08:59:02;;;;;;;4.80;2.40;;;24.00;99.90;;;23.96;57.02;101365.84;4883305;28;100525;-43
2023/07/09 09:01:47;;;;;;;3.10;2.30;;;24.00;99.90;;;23.66;50.66;101365.63;4880519;28;98035;-44
2023/07/09 09:04:29;;;;;;;5.43;2.25;;;23.90;99.90;;;23.66;50.74;101365.63;4875486;28;98949;-43
2023/07/09 09:07:10;;;;;;;2.92;2.22;;;23.80;99.90;;;23.52;49.81;101361.28;4876384;28;100419;-44
2023/07/09 09:10:01;;;;;;;5.38;2.10;;;23.70;99.90;;;23.24;49.71;101357.22;4876293;28;101810;-47
2023/07/09 09:12:38;;;;;;;2.88;2.10;;;23.50;99.90;;;23.39;58.86;101364.09;4874417;28;97718;-47
2023/07/09 09:15:15;;;;;;;5.65;2.65;;;23.40;99.90;;;23.22;50.30;101355.63;4880953;28;98260;-47
2023/07/09 09:17:41;;;;;;;3.63;2.20;;;23.40;99.90;;;23.21;50.68;101349.38;4872007;28;100360;-43
2023/07/09 09:20:22;;;;;;;3.55;2.13;;;23.40;99.90;;;23.04;50.57;101350.69;4879282;28;98506;-46
2023/07/09 09:23:15;;;;;;;2.65;2.05;;;23.20;99.90;;;22.84;51.31;101352.19;4875857;28;97583;-48
2023/07/09 09:25:50;;;;;;;3.83;2.50;;;23.00;99.90;;;22.83;56.96;101352.31;4872514;28;97717;-44
2023/07/09 09:28:16;;;;;;;3.50;2.10;;;22.90;99.90;;;22.84;51.11;101341.44;4867661;28;99104;-45
2023/07/09 09:30:41;;;;;;;3.97;2.10;;;23.00;99.90;;;22.85;50.72;101343.16;4864002;28;116290;-47
2023/07/09 09:33:11;;;;;;;3.47;2.40;;;23.00;99.90;;;22.77;50.98;101339.31;4875484;28;120550;-45
2023/07/09 09:35:43;;;;;;;2.95;2.22;;;22.90;99.90;;;22.75;52.00;101350.19;4873394;28;97420;-45
2023/07/09 09:38:16;;;;;;;4.20;2.20;;;22.80;99.90;;;22.85;51.67;101348.53;4877237;28;97655;-43
2023/07/09 09:40:43;;;;;;;3.03;2.20;;;23.00;99.90;;;22.74;51.74;101343.09;4867967;28;97711;-45
2023/07/09 09:43:19;;;;;;;3.00;2.10;;;22.90;99.90;;;22.72;51.43;101345.06;4878577;28;97432;-44
2023/07/09 09:45:48;;;;;;;4.35;2.38;;;22.80;99.90;;;23.00;52.32;101341.16;4877941;28;98979;-47
2023/07/09 09:48:19;;;;;;;3.95;2.63;;;23.00;99.90;;;23.29;51.69;101346.06;4876370;28;97802;-43
2023/07/09 09:50:47;;;;;;;4.07;2.42;;;23.40;99.90;;;23.13;51.46;101346.41;4873080;28;97042;-43
2023/07/09 09:53:23;;;;;;;3.42;2.00;;;23.30;99.90;;;22.85;51.28;101345.84;4877009;28;105329;-46
2023/07/09 09:55:51;;;;;;;3.10;1.77;;;23.10;99.90;;;22.94;51.47;101351.50;4878323;28;97163;-49
2023/07/09 09:58:19;;;;;;;2.70;2.15;;;23.10;99.90;;;22.87;51.85;101351.13;4874493;28;98939;-47
2023/07/09 10:00:54;;;;;;;3.28;1.83;;;23.00;99.90;;;22.81;51.48;101343.47;4876744;28;97453;-43
2023/07/09 10:03:21;;;;;;;4.78;2.05;;;23.00;99.90;;;22.72;51.66;101342.38;4878904;28;97460;-47
2023/07/09 10:05:58;;;;;;;3.78;1.98;;;22.90;99.90;;;23.17;58.32;101345.22;4872244;28;98629;-45
2023/07/09 10:09:03;;;;;;;2.83;1.95;;;23.10;99.90;;;23.50;52.01;101339.00;4873904;28;102051;-46
2023/07/09 10:11:52;;;;;;;5.57;2.65;;;23.70;99.90;;;23.70;50.69;101337.44;4867186;28;101675;-46
2023/07/09 10:14:39;;;;;;;5.32;1.95;;;23.90;99.90;;;23.45;50.62;101320.53;4876300;28;97913;-48
2023/07/09 10:17:39;;;;;;;4.88;2.75;;;23.70;99.90;;;23.54;57.98;101315.38;4883441;28;97425;-44